Time;durP1;ratioP1;P1;durP2;ratioP2;P2;SDS_P1;SDS_P2;PMS_P1;PMS_P2;Temp;Humidity;BMP_temperature;BMP_pressure;BME280_temperature;BME280_humidity;BME280_pressure;Samples;Min_cycle;Max_cycle;Signal;HPM_P1;HPM_P2
2022/01/12 00:04:40;;;;;;;41.10;21.40;;;;;;;-1.15;62.51;100897.60;221459;1274;139921;-59
2022/01/12 00:09:44;;;;;;;46.80;23.60;;;;;;;-1.09;62.47;100896.64;221384;1275;139633;-59
2022/01/12 00:14:48;;;;;;;46.00;22.50;;;;;;;-1.03;62.46;100893.60;221350;1275;139755;-61
2022/01/12 00:19:51;;;;;;;46.70;22.80;;;;;;;-0.99;62.50;100897.16;221354;1275;139666;-61
2022/01/12 00:35:19;;;;;;;41.30;21.00;;;;;;;-1.02;62.28;100905.81;221421;1275;139588;-62
2022/01/12 00:40:22;;;;;;;46.00;22.40;;;;;;;-1.02;62.30;100905.11;221415;1275;139940;-62
2022/01/12 00:45:25;;;;;;;47.70;21.60;;;;;;;-1.05;62.51;100904.39;221514;1276;139506;-60
2022/01/12 00:50:28;;;;;;;46.80;22.50;;;;;;;-1.03;62.51;100898.48;221464;1275;139024;-58
2022/01/12 00:55:32;;;;;;;45.70;22.30;;;;;;;-1.01;62.37;100897.81;221296;1274;139411;-59
2022/01/12 01:00:36;;;;;;;51.40;22.60;;;;;;;-1.03;62.37;100899.34;221230;1276;139618;-58
2022/01/12 01:05:39;;;;;;;48.70;22.10;;;;;;;-1.04;62.55;100899.70;221496;1275;138999;-58
2022/01/12 01:10:46;;;;;;;47.50;22.90;;;;;;;-1.04;62.55;100895.86;221426;1274;140612;-59
2022/01/12 01:16:08;;;;;;;46.20;22.00;;;;;;;-1.03;62.67;100896.57;221210;1275;139346;-60
2022/01/12 01:26:36;;;;;;;48.70;24.00;;;;;;;-0.99;62.74;100898.54;221465;1276;140035;-59
2022/01/12 01:31:41;;;;;;;57.90;26.70;;;;;;;-0.96;62.81;100905.38;221221;1275;139774;-57
2022/01/12 01:36:49;;;;;;;59.50;26.50;;;;;;;-0.91;62.93;100903.36;221320;1275;140446;-61
2022/01/12 01:41:58;;;;;;;60.80;26.40;;;;;;;-0.83;62.92;100901.56;221192;1276;139233;-60
2022/01/12 01:57:48;;;;;;;57.30;26.20;;;;;;;-0.75;62.90;100893.66;221134;1277;139717;-59
2022/01/12 02:02:56;;;;;;;57.60;26.30;;;;;;;-0.76;62.78;100889.99;221449;1276;233938;-59
2022/01/12 02:08:11;;;;;;;58.70;27.30;;;;;;;-0.77;62.85;100892.07;221256;1274;140135;-58
2022/01/12 02:13:50;;;;;;;65.90;27.10;;;;;;;-0.74;62.91;100894.54;221260;1274;140087;-58
2022/01/12 02:40:16;;;;;;;28.20;15.20;;;;;;;-0.38;62.52;100889.45;221276;1276;140788;-58
2022/01/12 02:50:55;;;;;;;22.10;11.80;;;;;;;-0.33;62.10;100885.48;221324;1276;139865;-60
2022/01/12 02:55:59;;;;;;;21.60;12.20;;;;;;;-0.35;62.02;100888.94;221143;1276;139630;-57
2022/01/12 03:01:25;;;;;;;20.50;10.70;;;;;;;-0.37;61.78;100890.33;221284;1275;139511;-59
2022/01/12 03:06:30;;;;;;;19.60;10.20;;;;;;;-0.36;61.60;100895.56;221268;1274;139745;-58
2022/01/12 03:11:35;;;;;;;18.80;10.00;;;;;;;-0.36;61.52;100896.79;221203;1276;139402;-61
2022/01/12 03:16:49;;;;;;;20.30;10.20;;;;;;;-0.38;61.39;100896.23;221010;1275;139831;-61
2022/01/12 03:21:56;;;;;;;19.50;9.70;;;;;;;-0.38;61.32;100893.79;221344;1277;139478;-60
2022/01/12 03:27:00;;;;;;;19.70;9.70;;;;;;;-0.41;61.16;100893.94;221384;1276;138822;-59
2022/01/12 03:32:05;;;;;;;16.70;9.30;;;;;;;-0.43;60.96;100888.86;221447;1276;140270;-58
2022/01/12 03:37:39;;;;;;;16.60;9.00;;;;;;;-0.44;60.75;100887.80;221050;1277;139313;-59
2022/01/12 03:42:40;;;;;;;17.00;8.90;;;;;;;-0.48;60.73;100879.73;221098;1276;139832;-58
2022/01/12 03:47:44;;;;;;;18.30;10.00;;;;;;;-0.49;60.73;100878.67;221465;1276;138761;-60
2022/01/12 03:52:47;;;;;;;17.60;9.00;;;;;;;-0.52;60.51;100883.69;221409;1276;139759;-59
2022/01/12 03:57:50;;;;;;;14.70;8.00;;;;;;;-0.52;60.47;100884.02;221126;1275;140258;-60
2022/01/12 04:02:53;;;;;;;230.40;141.80;;;;;;;-0.52;60.08;100886.64;221221;1276;139943;-58
2022/01/12 04:13:32;;;;;;;14.90;8.40;;;;;;;-0.40;60.08;100887.85;220825;1275;139450;-61
2022/01/12 04:18:36;;;;;;;146.90;87.20;;;;;;;-0.42;59.82;100888.16;221384;1276;139309;-60
2022/01/12 04:23:41;;;;;;;19.40;11.30;;;;;;;-0.40;60.03;100894.81;221189;1276;140438;-61
2022/01/12 04:28:44;;;;;;;13.70;7.70;;;;;;;-0.41;59.53;100893.05;221331;1275;139004;-63
2022/01/12 04:33:48;;;;;;;15.20;8.10;;;;;;;-0.48;59.56;100896.65;221101;1276;139389;-61
2022/01/12 04:38:51;;;;;;;15.60;7.70;;;;;;;-0.53;59.40;100897.10;221390;1276;140423;-60
2022/01/12 04:43:56;;;;;;;90.40;51.60;;;;;;;-0.52;59.61;100894.31;221327;1276;139559;-60
2022/01/12 04:54:21;;;;;;;15.90;8.80;;;;;;;-0.46;59.56;100901.89;221394;1276;140493;-59
2022/01/12 04:59:26;;;;;;;18.00;9.20;;;;;;;-0.49;59.67;100910.39;221197;1276;139697;-60
2022/01/12 05:12:46;;;;;;;124.80;68.10;;;;;;;-0.55;59.82;100914.67;221345;1276;139306;-61
2022/01/12 05:15:22;;;;;;;84.50;37.20;;;;;;;-0.47;59.91;100917.05;221519;1274;140370;-60
2022/01/12 05:20:26;;;;;;;22.80;11.20;;;;;;;-0.49;59.57;100914.41;221290;1274;139990;-61
2022/01/12 05:25:29;;;;;;;18.40;10.10;;;;;;;-0.55;59.42;100921.13;221226;1275;140127;-61
2022/01/12 05:30:33;;;;;;;18.90;10.70;;;;;;;-0.57;59.42;100925.98;221295;1274;139258;-60
2022/01/12 05:35:37;;;;;;;18.20;9.20;;;;;;;-0.62;59.37;100926.61;221340;1274;140900;-59
2022/01/12 05:40:48;;;;;;;19.60;10.70;;;;;;;-0.70;58.99;100930.31;221152;1275;139857;-61
2022/01/12 05:46:08;;;;;;;20.40;10.70;;;;;;;-0.75;59.35;100934.96;221272;1276;139945;-60
2022/01/12 05:51:11;;;;;;;18.60;10.40;;;;;;;-0.78;59.27;100935.27;221526;1274;139729;-60
2022/01/12 05:56:14;;;;;;;17.30;10.00;;;;;;;-0.78;59.32;100942.41;221320;1274;140038;-60
2022/01/12 06:01:20;;;;;;;18.50;10.00;;;;;;;-0.80;59.18;100953.19;221141;1274;139868;-61
2022/01/12 06:06:24;;;;;;;18.50;9.50;;;;;;;-0.85;58.99;100958.50;221210;1274;139761;-60
2022/01/12 06:11:28;;;;;;;20.00;10.30;;;;;;;-0.85;59.05;100956.95;221305;1277;140316;-60
2022/01/12 06:16:32;;;;;;;22.40;11.50;;;;;;;-0.85;59.14;100961.48;221168;1275;139722;-60
2022/01/12 06:21:35;;;;;;;23.60;12.10;;;;;;;-0.83;59.17;100963.94;221172;1275;140325;-60
2022/01/12 06:26:46;;;;;;;22.70;11.50;;;;;;;-0.83;59.19;100969.16;221144;1276;140165;-62
2022/01/12 06:31:52;;;;;;;22.00;12.70;;;;;;;-0.82;59.25;100969.35;221296;1274;139455;-59
2022/01/12 06:36:56;;;;;;;22.70;12.30;;;;;;;-0.85;59.18;100968.98;221212;1276;142319;-59
2022/01/12 06:41:59;;;;;;;22.10;12.20;;;;;;;-0.87;59.09;100971.71;221413;1276;139700;-60
2022/01/12 06:47:04;;;;;;;22.90;12.90;;;;;;;-0.91;59.11;100969.40;221315;1276;140025;-60
2022/01/12 06:52:07;;;;;;;23.00;12.30;;;;;;;-0.90;59.01;100981.78;221202;1276;140019;-59
2022/01/12 06:57:10;;;;;;;24.30;12.90;;;;;;;-0.91;59.02;100986.48;221378;1276;141474;-61
2022/01/12 07:02:14;;;;;;;28.00;11.80;;;;;;;-0.94;58.93;100994.44;221396;1274;139913;-61
2022/01/12 07:07:19;;;;;;;27.50;13.30;;;;;;;-0.99;58.75;100993.83;221292;1276;139980;-58
2022/01/12 07:12:23;;;;;;;26.00;13.40;;;;;;;-1.03;58.66;100999.52;221218;1276;139988;-59
2022/01/12 07:17:27;;;;;;;24.40;12.50;;;;;;;-1.09;58.56;101006.20;221198;1276;140014;-59
2022/01/12 07:22:30;;;;;;;25.80;13.60;;;;;;;-1.12;58.39;101016.24;221170;1275;140924;-57
2022/01/12 07:27:34;;;;;;;27.10;14.20;;;;;;;-1.10;58.63;101012.63;221391;1274;139676;-60
2022/01/12 07:32:37;;;;;;;25.10;13.40;;;;;;;-1.11;58.46;101005.11;221377;1274;139156;-61
2022/01/12 07:37:40;;;;;;;28.00;14.60;;;;;;;-1.16;58.36;101003.81;221367;1276;140059;-61
2022/01/12 07:42:44;;;;;;;30.30;14.80;;;;;;;-1.14;58.65;101012.03;221074;1276;139355;-59
2022/01/12 07:47:50;;;;;;;22.60;12.50;;;;;;;-1.12;58.49;101024.60;221179;1274;139981;-59
2022/01/12 07:52:53;;;;;;;24.00;13.70;;;;;;;-1.22;58.07;101027.41;221363;1274;140153;-60
2022/01/12 07:57:57;;;;;;;27.10;14.10;;;;;;;-1.28;58.16;101025.55;221401;1276;139694;-60
2022/01/12 08:03:00;;;;;;;31.60;15.30;;;;;;;-1.27;58.42;101029.40;221390;1276;139600;-60
2022/01/12 08:08:03;;;;;;;27.80;14.70;;;;;;;-1.20;58.38;101031.09;221239;1276;139809;-60
2022/01/12 08:13:06;;;;;;;25.60;13.10;;;;;;;-1.23;58.05;101027.73;221406;1274;139413;-60
2022/01/12 08:18:09;;;;;;;26.70;13.80;;;;;;;-1.28;58.08;101029.39;221400;1275;140229;-60
2022/01/12 08:23:12;;;;;;;25.40;14.50;;;;;;;-1.26;58.24;101022.98;221280;1275;139806;-60
2022/01/12 08:28:15;;;;;;;28.00;14.00;;;;;;;-1.21;58.39;101031.77;221271;1276;139562;-58
2022/01/12 08:33:18;;;;;;;29.20;14.00;;;;;;;-1.14;58.39;101030.31;221461;1275;139431;-61
2022/01/12 08:38:21;;;;;;;26.20;14.40;;;;;;;-1.09;58.49;101036.33;221290;1274;139418;-61
2022/01/12 08:43:24;;;;;;;29.80;15.00;;;;;;;-1.03;58.43;101045.33;221221;1276;139867;-62
2022/01/12 08:48:27;;;;;;;28.50;13.80;;;;;;;-1.00;58.22;101041.36;221453;1276;140452;-59
2022/01/12 08:53:30;;;;;;;27.80;14.90;;;;;;;-1.00;58.24;101042.06;221212;1275;139942;-58
2022/01/12 08:58:33;;;;;;;31.80;15.00;;;;;;;-0.99;58.11;101051.83;221177;1275;139446;-60
2022/01/12 09:03:39;;;;;;;33.00;16.40;;;;;;;-1.02;58.01;101059.09;221677;1274;139812;-60
2022/01/12 09:08:44;;;;;;;31.70;16.30;;;;;;;-1.02;58.17;101058.05;221232;1276;142539;-59
2022/01/12 09:13:47;;;;;;;32.50;14.60;;;;;;;-1.03;57.95;101057.33;221119;1275;139521;-60
2022/01/12 09:18:51;;;;;;;28.60;15.90;;;;;;;-1.12;57.71;101058.58;221131;1276;139747;-60
2022/01/12 09:23:54;;;;;;;28.80;14.50;;;;;;;-1.23;57.59;101055.06;221443;1276;140026;-60
2022/01/12 09:28:57;;;;;;;28.10;14.00;;;;;;;-1.40;57.50;101053.55;221117;1275;141915;-59
2022/01/12 09:34:00;;;;;;;28.20;14.50;;;;;;;-1.47;57.49;101049.04;221270;1275;139665;-59
2022/01/12 09:39:03;;;;;;;25.60;14.30;;;;;;;-1.58;57.45;101044.81;221310;1276;139777;-59
2022/01/12 09:44:06;;;;;;;30.40;15.30;;;;;;;-1.59;57.94;101036.97;221270;1276;140153;-59
2022/01/12 09:49:10;;;;;;;28.20;14.10;;;;;;;-1.49;58.13;101037.34;221441;1275;139771;-62
2022/01/12 09:54:13;;;;;;;31.00;15.40;;;;;;;-1.42;57.74;101025.99;221145;1276;139758;-63
2022/01/12 09:59:16;;;;;;;29.30;14.80;;;;;;;-1.39;57.77;101011.93;221311;1275;140144;-58
2022/01/12 10:04:24;;;;;;;29.10;14.50;;;;;;;-1.37;57.81;100993.86;221451;1274;140547;-60
2022/01/12 10:09:36;;;;;;;28.70;14.50;;;;;;;-1.39;57.59;100983.56;221454;1275;141022;-59
2022/01/12 10:14:49;;;;;;;29.60;13.80;;;;;;;-1.42;57.77;100980.55;221376;1274;139349;-60
2022/01/12 10:19:52;;;;;;;29.10;14.70;;;;;;;-1.42;57.69;100988.73;221290;1276;140345;-60
2022/01/12 10:24:55;;;;;;;30.50;15.40;;;;;;;-1.41;57.71;100977.96;221059;1276;140083;-60
2022/01/12 10:30:04;;;;;;;29.40;14.60;;;;;;;-1.38;57.73;100982.02;221403;1275;139964;-59
2022/01/12 10:35:07;;;;;;;29.60;14.50;;;;;;;-1.37;57.68;100991.60;221354;1274;140218;-59
2022/01/12 10:40:10;;;;;;;27.60;15.10;;;;;;;-1.35;57.74;101003.14;221336;1275;140143;-62
2022/01/12 10:45:13;;;;;;;32.00;15.90;;;;;;;-1.27;57.95;101006.24;221340;1275;139613;-61
2022/01/12 10:50:16;;;;;;;30.30;15.90;;;;;;;-1.18;58.02;100993.52;221208;1275;140610;-61
2022/01/12 10:55:19;;;;;;;31.10;15.80;;;;;;;-1.12;57.72;100984.21;221230;1275;140168;-61
2022/01/12 11:00:24;;;;;;;30.40;15.10;;;;;;;-1.16;57.40;100982.40;221358;1274;140706;-60
2022/01/12 11:05:30;;;;;;;22.00;11.30;;;;;;;-1.16;57.45;100973.34;221145;1275;139826;-60
2022/01/12 11:10:33;;;;;;;29.80;15.40;;;;;;;-1.11;57.55;100966.46;221086;1276;139607;-61
2022/01/12 11:15:36;;;;;;;32.00;16.80;;;;;;;-1.11;57.31;100969.41;221267;1276;140026;-60
2022/01/12 11:20:43;;;;;;;33.30;17.00;;;;;;;-1.08;57.63;100983.76;221365;1275;140414;-60
2022/01/12 11:25:52;;;;;;;39.70;17.80;;;;;;;-1.10;57.42;100970.14;221207;1275;139552;-59
2022/01/12 11:30:55;;;;;;;30.00;15.60;;;;;;;-1.20;57.18;100961.94;221257;1274;140880;-61
2022/01/12 11:36:04;;;;;;;37.80;16.20;;;;;;;-1.31;57.18;100961.78;221057;1277;141539;-60
2022/01/12 11:41:28;;;;;;;29.20;16.00;;;;;;;-1.39;57.15;100970.52;221419;1276;139580;-61
2022/01/12 11:46:53;;;;;;;32.30;16.40;;;;;;;-1.48;57.31;100954.52;221085;1275;140122;-60
2022/01/12 11:52:04;;;;;;;33.20;16.80;;;;;;;-1.45;57.58;100948.48;221044;1276;140232;-59
2022/01/12 11:57:18;;;;;;;35.20;16.80;;;;;;;-1.39;57.42;100953.80;221477;1275;141572;-60
2022/01/12 12:02:33;;;;;;;34.00;17.50;;;;;;;-1.35;57.37;100942.89;221256;1274;139508;-59
2022/01/12 12:07:49;;;;;;;32.90;16.50;;;;;;;-1.30;57.52;100933.77;221285;1276;140428;-59
2022/01/12 12:12:56;;;;;;;34.40;17.60;;;;;;;-1.30;57.38;100935.33;221328;1274;140170;-61
2022/01/12 12:18:04;;;;;;;38.80;17.50;;;;;;;-1.33;57.17;100943.64;221100;1276;141109;-61
2022/01/12 12:23:07;;;;;;;34.30;17.40;;;;;;;-1.35;57.31;100949.52;221309;1275;139857;-60
2022/01/12 12:28:13;;;;;;;31.40;15.20;;;;;;;-1.37;57.02;100956.09;221275;1274;140499;-61
2022/01/12 12:33:16;;;;;;;32.00;16.00;;;;;;;-1.36;57.00;100960.13;221433;1275;140947;-57
2022/01/12 12:38:20;;;;;;;176.20;75.10;;;;;;;-1.32;57.07;100962.81;221151;1275;141651;-62
2022/01/12 12:43:28;;;;;;;45.40;21.50;;;;;;;-1.16;57.44;100949.15;221206;1276;140005;-60
2022/01/12 12:48:33;;;;;;;36.70;17.50;;;;;;;-1.06;56.99;100958.36;221265;1276;140409;-60
2022/01/12 12:53:40;;;;;;;35.80;16.70;;;;;;;-1.04;56.80;100952.13;221043;1277;140888;-60
2022/01/12 12:58:54;;;;;;;31.70;15.70;;;;;;;-1.01;56.80;100950.95;221083;1277;140456;-60
2022/01/12 13:03:59;;;;;;;29.50;14.70;;;;;;;-1.00;56.63;100945.22;221367;1276;140836;-62
2022/01/12 13:09:06;;;;;;;30.20;15.80;;;;;;;-1.07;56.34;100937.44;221557;1276;142276;-59
2022/01/12 13:14:11;;;;;;;38.80;16.00;;;;;;;-1.11;56.48;100937.38;221371;1275;139583;-60
2022/01/12 13:19:22;;;;;;;32.10;15.90;;;;;;;-1.10;56.44;100937.04;221049;1276;140475;-58
2022/01/12 13:24:25;;;;;;;37.00;17.00;;;;;;;-1.09;56.42;100930.42;221188;1276;140086;-60
2022/01/12 13:29:28;;;;;;;38.50;16.90;;;;;;;-1.14;56.36;100918.88;221211;1276;139308;-61
2022/01/12 13:34:40;;;;;;;32.70;16.50;;;;;;;-1.14;56.24;100918.87;221172;1276;140055;-61
2022/01/12 13:39:44;;;;;;;41.40;18.00;;;;;;;-1.11;56.37;100930.77;221416;1275;141125;-59
2022/01/12 13:44:47;;;;;;;34.70;16.00;;;;;;;-1.09;56.43;100920.00;221423;1274;139457;-61
2022/01/12 13:50:26;;;;;;;37.20;16.40;;;;;;;-1.10;56.26;100923.97;221235;1276;139653;-62
2022/01/12 13:55:29;;;;;;;30.50;16.00;;;;;;;-1.21;56.10;100910.58;221169;1274;140298;-61
2022/01/12 14:00:35;;;;;;;31.20;16.10;;;;;;;-1.29;56.45;100903.13;221488;1276;140413;-59
2022/01/12 14:05:39;;;;;;;32.10;17.10;;;;;;;-1.37;56.36;100907.86;221369;1276;141526;-60
2022/01/12 14:10:52;;;;;;;37.90;17.40;;;;;;;-1.40;56.50;100916.02;221324;1275;142156;-60
2022/01/12 14:16:07;;;;;;;30.80;14.80;;;;;;;-1.38;56.64;100921.95;221372;1276;139742;-59
2022/01/12 14:21:20;;;;;;;34.30;15.80;;;;;;;-1.40;56.53;100934.97;221254;1276;139670;-60
2022/01/12 14:26:23;;;;;;;36.70;17.20;;;;;;;-1.44;56.69;100933.17;221167;1276;140255;-58
2022/01/12 14:31:26;;;;;;;41.80;16.20;;;;;;;-1.49;56.64;100934.98;221429;1275;139727;-59
2022/01/12 14:36:33;;;;;;;34.40;16.50;;;;;;;-1.53;56.61;100939.64;221345;1275;140852;-59
2022/01/12 14:41:37;;;;;;;34.80;15.40;;;;;;;-1.53;56.74;100939.98;221278;1276;139636;-60
2022/01/12 14:46:40;;;;;;;38.50;18.00;;;;;;;-1.51;56.74;100930.80;221218;1275;140192;-60
2022/01/12 14:51:43;;;;;;;36.50;18.00;;;;;;;-1.56;56.83;100928.60;221464;1275;139836;-60
2022/01/12 14:57:06;;;;;;;37.20;16.80;;;;;;;-1.58;56.99;100928.05;221313;1274;140344;-61
2022/01/12 15:02:09;;;;;;;37.50;18.40;;;;;;;-1.60;56.93;100921.05;221323;1276;139636;-59
2022/01/12 15:07:13;;;;;;;37.00;18.30;;;;;;;-1.67;56.92;100924.08;221206;1275;141337;-60
2022/01/12 15:12:24;;;;;;;36.40;17.90;;;;;;;-1.76;57.05;100923.39;221269;1276;142046;-59
2022/01/12 15:17:28;;;;;;;35.00;16.50;;;;;;;-1.90;57.12;100918.08;221109;1276;140519;-60
2022/01/12 15:22:31;;;;;;;84.30;38.00;;;;;;;-2.04;57.31;100923.90;221425;1274;139921;-58
2022/01/12 15:27:34;;;;;;;35.50;16.30;;;;;;;-1.94;58.11;100910.34;221360;1276;139678;-60
2022/01/12 15:32:38;;;;;;;35.30;16.20;;;;;;;-2.00;57.58;100912.68;221067;1276;141721;-59
2022/01/12 15:37:41;;;;;;;41.90;19.20;;;;;;;-2.10;57.47;100916.48;221290;1276;139810;-58
2022/01/12 15:42:44;;;;;;;43.60;19.30;;;;;;;-2.15;57.48;100914.82;221283;1277;139940;-60
2022/01/12 15:47:47;;;;;;;45.30;19.10;;;;;;;-2.22;57.64;100917.81;221305;1275;140572;-58
2022/01/12 15:52:50;;;;;;;38.10;20.00;;;;;;;-2.24;57.85;100934.98;221133;1275;140526;-60
2022/01/12 15:57:53;;;;;;;40.90;20.30;;;;;;;-2.23;57.90;100936.92;221266;1276;139284;-60
2022/01/12 16:02:56;;;;;;;44.70;20.60;;;;;;;-2.24;57.87;100933.92;221279;1275;139755;-60
2022/01/12 16:08:01;;;;;;;42.30;20.50;;;;;;;-2.26;57.92;100937.71;220924;1277;325523;-59
2022/01/12 16:13:04;;;;;;;83.50;40.80;;;;;;;-2.31;58.02;100931.19;221183;1274;139799;-59
2022/01/12 16:18:27;;;;;;;43.40;21.50;;;;;;;-2.23;58.39;100933.09;221264;1276;139204;-59
2022/01/12 16:23:31;;;;;;;45.70;22.90;;;;;;;-2.26;58.06;100930.92;221229;1276;140639;-59
2022/01/12 16:28:40;;;;;;;46.30;24.30;;;;;;;-2.29;58.16;100932.62;221251;1277;139864;-59
2022/01/12 16:33:43;;;;;;;45.10;20.90;;;;;;;-2.29;58.20;100928.27;221251;1276;139516;-56
2022/01/12 16:38:47;;;;;;;47.80;22.20;;;;;;;-2.32;58.05;100922.30;221259;1277;140784;-59
2022/01/12 16:43:51;;;;;;;43.90;20.40;;;;;;;-2.36;58.18;100931.26;221303;1276;140639;-57
2022/01/12 16:48:54;;;;;;;47.90;22.40;;;;;;;-2.38;58.30;100929.30;221241;1276;139585;-60
2022/01/12 16:54:16;;;;;;;46.60;22.90;;;;;;;-2.42;58.24;100920.02;221301;1274;140305;-60
2022/01/12 16:59:19;;;;;;;42.20;22.20;;;;;;;-2.43;58.40;100914.60;221252;1277;139795;-59
2022/01/12 17:04:23;;;;;;;43.10;22.50;;;;;;;-2.45;58.41;100915.42;221195;1277;140640;-60
2022/01/12 17:09:26;;;;;;;44.70;23.50;;;;;;;-2.47;58.44;100919.21;221266;1276;140967;-59
2022/01/12 17:14:29;;;;;;;46.20;23.30;;;;;;;-2.51;58.52;100921.21;221226;1277;139548;-60
2022/01/12 17:19:36;;;;;;;50.50;23.90;;;;;;;-2.52;58.58;100915.95;221120;1276;141259;-60
2022/01/12 17:25:06;;;;;;;;;;;;;;;-2.25;59.92;100916.52;221337;1276;139531;-60
2022/01/12 17:30:10;;;;;;;56.90;27.90;;;;;;;-2.21;58.90;100915.74;221336;1277;126169;-60
2022/01/12 17:35:13;;;;;;;54.60;28.30;;;;;;;-2.33;58.68;100916.71;221306;1274;141402;-60
2022/01/12 17:40:16;;;;;;;52.60;25.70;;;;;;;-2.42;58.61;100918.10;221243;1276;140116;-58
2022/01/12 17:45:19;;;;;;;61.60;28.40;;;;;;;-2.44;58.74;100921.88;221401;1274;141055;-59
2022/01/12 17:50:24;;;;;;;57.30;26.80;;;;;;;-2.46;58.86;100913.48;221256;1277;140852;-61
2022/01/12 17:55:31;;;;;;;63.90;29.30;;;;;;;-2.49;58.87;100915.17;221176;1274;141810;-59
2022/01/12 18:00:34;;;;;;;57.10;26.80;;;;;;;-2.51;58.89;100921.39;221079;1276;140283;-60
2022/01/12 18:05:37;;;;;;;64.90;29.70;;;;;;;-2.34;59.91;100912.02;221222;1275;140192;-59
2022/01/12 18:10:40;;;;;;;57.80;28.60;;;;;;;-2.21;59.37;100911.21;221436;1274;139592;-61
2022/01/12 18:15:52;;;;;;;58.70;28.90;;;;;;;-2.23;59.03;100912.05;221782;1274;139576;-60
2022/01/12 18:20:55;;;;;;;61.90;30.20;;;;;;;-2.29;58.84;100908.45;221474;1276;139440;-58
2022/01/12 18:25:58;;;;;;;70.90;30.80;;;;;;;-2.35;58.76;100913.73;221363;1275;141401;-63
2022/01/12 18:31:01;;;;;;;74.60;33.40;;;;;;;-2.40;58.86;100915.88;221223;1275;140110;-60
2022/01/12 18:36:06;;;;;;;73.60;34.50;;;;;;;-2.40;58.94;100918.14;221169;1276;139531;-58
2022/01/12 18:41:10;;;;;;;72.40;33.60;;;;;;;-2.41;58.99;100924.73;220770;1276;140192;-59
2022/01/12 18:46:13;;;;;;;66.80;31.10;;;;;;;-2.39;59.09;100915.20;221327;1275;141661;-60
2022/01/12 18:51:16;;;;;;;67.50;33.00;;;;;;;-2.40;59.07;100912.25;221402;1274;140118;-60
2022/01/12 18:56:19;;;;;;;67.60;30.80;;;;;;;-2.38;59.13;100907.73;221224;1276;140025;-59
2022/01/12 19:01:22;;;;;;;70.90;34.20;;;;;;;-2.39;59.13;100909.80;221166;1276;141247;-60
2022/01/12 19:06:36;;;;;;;69.10;30.90;;;;;;;-2.46;59.11;100914.72;221206;1276;139690;-59
2022/01/12 19:11:41;;;;;;;74.50;36.30;;;;;;;-2.49;59.20;100913.77;221196;1276;140512;-60
2022/01/12 19:16:47;;;;;;;80.50;36.70;;;;;;;-2.49;59.31;100914.98;221294;1277;139931;-59
2022/01/12 19:21:50;;;;;;;79.70;34.80;;;;;;;-2.47;59.36;100911.56;221308;1276;139866;-58
2022/01/12 19:26:54;;;;;;;78.90;34.70;;;;;;;-2.43;59.33;100904.00;221171;1275;139529;-58
2022/01/12 19:31:57;;;;;;;76.10;34.70;;;;;;;-2.43;59.50;100915.48;221173;1275;139799;-59
2022/01/12 19:37:00;;;;;;;78.70;32.80;;;;;;;-2.37;59.47;100912.80;221322;1275;141024;-60
2022/01/12 19:42:03;;;;;;;77.50;34.30;;;;;;;-2.30;59.55;100918.67;221256;1274;141019;-60
2022/01/12 19:47:14;;;;;;;76.30;34.80;;;;;;;-2.27;59.46;100920.13;221043;1276;141493;-60
2022/01/12 19:52:34;;;;;;;75.70;33.40;;;;;;;-2.26;59.47;100920.84;221217;1276;139583;-60
2022/01/12 19:57:49;;;;;;;78.30;34.90;;;;;;;-2.25;59.36;100909.39;221308;1277;139539;-60
2022/01/12 20:03:02;;;;;;;91.90;41.80;;;;;;;-2.19;59.98;100906.56;221221;1274;140962;-60
2022/01/12 20:08:44;;;;;;;72.50;31.90;;;;;;;-1.86;60.16;100899.53;221223;1274;139349;-60
2022/01/12 20:13:49;;;;;;;70.10;31.90;;;;;;;-1.92;59.34;100902.91;221216;1276;139884;-58
2022/01/12 20:24:25;;;;;;;138.90;61.30;;;;;;;-1.94;59.70;100898.54;221230;1276;140308;-60
2022/01/12 20:29:31;;;;;;;75.10;33.70;;;;;;;-1.65;59.91;100901.98;221222;1276;139852;-56
2022/01/12 20:35:05;;;;;;;58.80;27.30;;;;;;;-1.70;59.24;100899.30;221213;1275;141449;-59
2022/01/12 20:40:11;;;;;;;67.80;30.40;;;;;;;-1.78;59.08;100907.69;221548;1274;139439;-61
2022/01/12 20:45:14;;;;;;;65.70;30.30;;;;;;;-1.82;59.10;100917.02;221213;1274;139417;-59
2022/01/12 20:50:17;;;;;;;64.50;28.90;;;;;;;-1.84;59.28;100918.38;221152;1276;141806;-58
2022/01/12 20:55:20;;;;;;;59.80;28.70;;;;;;;-1.84;59.26;100917.16;221298;1276;140910;-62
2022/01/12 21:00:23;;;;;;;54.20;25.40;;;;;;;-1.83;59.16;100916.30;221368;1274;140083;-61
2022/01/12 21:05:26;;;;;;;60.50;28.30;;;;;;;-1.84;59.05;100908.09;221197;1275;140292;-62
2022/01/12 21:10:29;;;;;;;55.00;25.30;;;;;;;-1.82;59.24;100894.74;221287;1275;141452;-62
2022/01/12 21:15:33;;;;;;;53.40;24.40;;;;;;;-1.81;59.11;100889.39;221334;1276;139679;-61
2022/01/12 21:20:37;;;;;;;55.80;26.10;;;;;;;-1.79;59.04;100893.92;221269;1276;140037;-60
2022/01/12 21:25:40;;;;;;;59.60;27.90;;;;;;;-1.83;58.97;100894.73;221292;1276;139444;-60
2022/01/12 21:30:44;;;;;;;57.20;26.30;;;;;;;-1.87;59.00;100879.52;221254;1276;139903;-60
2022/01/12 21:35:52;;;;;;;49.60;22.60;;;;;;;-1.89;59.08;100866.10;221340;1275;139468;-60
2022/01/12 21:41:20;;;;;;;62.30;29.90;;;;;;;-1.92;59.01;100870.04;221005;1276;139485;-59
2022/01/12 21:46:25;;;;;;;60.50;25.80;;;;;;;-1.86;59.27;100877.98;221293;1276;140033;-60
2022/01/12 21:51:31;;;;;;;54.50;25.20;;;;;;;-1.81;59.24;100877.89;221260;1276;140233;-57
2022/01/12 21:56:34;;;;;;;;;;;;;;;-1.77;59.04;100874.98;221293;1274;140356;-58
2022/01/12 22:01:37;;;;;;;67.10;29.90;;;;;;;-1.77;59.14;100870.83;221360;1276;125619;-59
2022/01/12 22:06:41;;;;;;;67.50;30.20;;;;;;;-1.80;58.96;100871.65;221286;1276;139886;-58
2022/01/12 22:11:44;;;;;;;70.30;31.40;;;;;;;-1.82;59.03;100870.05;221345;1275;140332;-59
2022/01/12 22:16:47;;;;;;;66.30;31.10;;;;;;;-1.78;59.06;100874.12;221323;1274;139861;-59
2022/01/12 22:21:50;;;;;;;75.40;34.50;;;;;;;-1.81;59.15;100862.41;221107;1276;140197;-61
2022/01/12 22:26:53;;;;;;;74.00;33.40;;;;;;;-1.85;59.20;100858.86;221466;1274;139805;-61
2022/01/12 22:31:56;;;;;;;70.20;30.30;;;;;;;-1.84;59.38;100853.48;221391;1274;139459;-59
2022/01/12 22:36:59;;;;;;;72.60;31.50;;;;;;;-1.81;59.31;100845.88;221254;1275;140052;-59
2022/01/12 22:42:02;;;;;;;74.20;33.30;;;;;;;-1.81;59.49;100843.09;221472;1275;140385;-59
2022/01/12 22:47:05;;;;;;;75.70;31.80;;;;;;;-1.80;59.51;100841.91;221307;1276;139958;-58
2022/01/12 22:52:08;;;;;;;79.60;35.40;;;;;;;-1.80;59.52;100836.84;221496;1275;139635;-60
2022/01/12 23:02:50;;;;;;;80.10;36.10;;;;;;;-1.71;59.74;100836.13;220276;1276;139627;-59
2022/01/12 23:07:56;;;;;;;78.20;35.90;;;;;;;-1.69;59.84;100832.69;220817;1276;140478;-60
2022/01/12 23:13:00;;;;;;;79.60;35.70;;;;;;;-1.66;60.01;100821.59;221175;1276;139433;-60
2022/01/12 23:18:04;;;;;;;79.30;35.00;;;;;;;-1.66;60.06;100822.30;221219;1276;140214;-58
2022/01/12 23:23:07;;;;;;;74.30;31.80;;;;;;;-1.60;60.18;100820.13;221232;1276;142516;-60
2022/01/12 23:28:10;;;;;;;70.80;31.40;;;;;;;-1.57;60.30;100826.61;221476;1275;139709;-61
2022/01/12 23:59:50;;;;;;;82.20;36.20;;;;;;;-1.41;60.60;100804.06;220944;1276;140662;-58
